CPX107 Details

Departure: Ted Stevens Anchorage International Airport (PANC)
Arrival: Miami International Airport (KMIA) at N/A
Route: JOH J501 YAK NCA10 YQU J515 YEG SEFFY VLN J483 MOT ABR J45 FSD J45 DSM Q19 LAJUG Q19 BNA BULZI NICKI Q81 ENDEW JUULI SSCOT5
Notes:


Current Weather Information
PANC 230753Z 28009KT 10SM SCT065 OVC110 04/01 A2968 RMK AO2 SLP052 T00390006
KMIA 230753Z 02003KT 10SM FEW009 FEW015 26/23 A2996 RMK AO2 SLP145 T02610228